Disclaimer

Please do not use the information listed here in-flight or in-navigation, as they are not provided to us by the airports but are provided by volunteers, so they might be outdated.

Search


Regions


Airport information page

Radio informations:
CLERMONT TWR - 118.625 MHz
CLERMONT GND - 121.95 MHz
CLERMONT ATIS - 136.4 MHz
CLERMONT APP - 120.325 MHz

Airport informations:
Latitude: 45° 47' 11.98" N
Longitude: 003° 10' 09.01" E
Elevation: 1090 feet - 332 meters
Operating hours: 24 hour operations
Operating agency: Civil government, landing fees and diplomatic clearance may be required
Timezone: UTC+1(+2DT) - Last Sunday in March to last Sunday in October
Fuel: JP-8, SemiKeroscene MIL Spec T-83133, without icing inhibitor

100/130 MIL Spec, low lead, aviation gasoline (BLUE)

Runway information:
08/26 - 9892 x 148 feet< - >3015 x 45 meters

Recent METARs:
LFLC 170800Z AUTO VRB03KT 1300 0900 R26/1300N R08/1900D BCFG OVC003 06/05 Q1019 TEMPO VV/// BECMG 4000 BR
LFLC 170830Z AUTO 01003KT 330V050 1200 0800 R26/1200D R08/2000D BCFG VV/// 06/06 Q1020 TEMPO DZ OVC002
LFLC 170900Z AUTO 36003KT 330V030 1400 0800 R26/1200U R08/2200D BCFG VV/// 06/06 Q1019 TEMPO DZ OVC002

Airport on the map: